Time;durP1;ratioP1;P1;durP2;ratioP2;P2;SDS_P1;SDS_P2;PMS_P1;PMS_P2;Temp;Humidity;BMP_temperature;BMP_pressure;BME280_temperature;BME280_humidity;BME280_pressure;Samples;Min_cycle;Max_cycle;Signal;HPM_P1;HPM_P2
2022/02/23 00:01:32;;;;;;;62.38;40.12;;;;;;;5.19;100.00;100565.93;1633679;86;21033;-81
2022/02/23 00:04:00;;;;;;;55.15;38.17;;;;;;;5.16;100.00;100566.09;1627622;86;21073;-82
2022/02/23 00:06:29;;;;;;;62.05;40.98;;;;;;;5.12;100.00;100565.89;1637413;87;22122;-81
2022/02/23 00:08:56;;;;;;;54.95;36.08;;;;;;;5.11;100.00;100566.80;1585724;88;21144;-80
2022/02/23 00:11:23;;;;;;;52.65;36.55;;;;;;;5.10;100.00;100564.27;1605983;87;21061;-82
2022/02/23 00:13:50;;;;;;;54.98;37.23;;;;;;;5.02;100.00;100568.09;1600581;87;21076;-83
2022/02/23 00:16:18;;;;;;;55.23;36.53;;;;;;;4.95;100.00;100562.88;1637981;86;21116;-84
2022/02/23 00:18:46;;;;;;;51.80;36.95;;;;;;;4.93;100.00;100563.88;1624512;86;21141;-83
2022/02/23 00:21:14;;;;;;;56.08;37.17;;;;;;;4.87;100.00;100559.88;1624832;86;21076;-80
2022/02/23 00:23:41;;;;;;;53.50;36.42;;;;;;;4.84;100.00;100565.21;1629930;87;21163;-80
2022/02/23 00:26:08;;;;;;;60.28;38.83;;;;;;;4.80;100.00;100568.84;1605782;86;21175;-81
2022/02/23 00:28:35;;;;;;;54.45;37.53;;;;;;;4.76;100.00;100568.17;1600725;88;21096;-80
2022/02/23 00:31:02;;;;;;;56.15;37.88;;;;;;;4.76;100.00;100568.64;1598206;87;22026;-80
2022/02/23 00:33:29;;;;;;;54.85;37.40;;;;;;;4.77;100.00;100569.84;1629148;86;21117;-83
2022/02/23 00:35:58;;;;;;;61.50;38.38;;;;;;;4.80;100.00;100573.56;1604190;87;21129;-79
2022/02/23 00:38:25;;;;;;;50.00;35.28;;;;;;;4.81;100.00;100561.02;1594492;88;21085;-80
2022/02/23 00:40:53;;;;;;;52.78;35.17;;;;;;;4.83;100.00;100559.67;1597329;86;21549;-81
2022/02/23 00:43:20;;;;;;;60.28;38.90;;;;;;;4.85;100.00;100567.70;1629300;85;21848;-80
2022/02/23 00:45:47;;;;;;;58.60;37.85;;;;;;;4.85;100.00;100566.84;1609818;87;21087;-81
2022/02/23 00:48:14;;;;;;;58.70;36.88;;;;;;;4.84;100.00;100571.66;1647170;84;21406;-79
2022/02/23 00:50:46;;;;;;;55.28;37.65;;;;;;;4.84;100.00;100574.23;1621613;86;21120;-80
2022/02/23 00:53:14;;;;;;;57.60;39.65;;;;;;;4.83;100.00;100566.12;1603772;87;21605;-85
2022/02/23 00:55:41;;;;;;;54.03;35.95;;;;;;;4.82;100.00;100569.61;1603163;86;21118;-84
2022/02/23 00:58:08;;;;;;;53.52;34.43;;;;;;;4.80;100.00;100564.98;1633081;86;21077;-83
2022/02/23 01:00:35;;;;;;;55.85;35.23;;;;;;;4.80;100.00;100567.55;1608526;87;21626;-82
2022/02/23 01:03:02;;;;;;;46.20;32.35;;;;;;;4.79;100.00;100562.02;1622801;86;21099;-83
2022/02/23 01:05:30;;;;;;;46.92;31.23;;;;;;;4.81;100.00;100573.09;1605237;87;21091;-82
2022/02/23 01:07:57;;;;;;;46.75;31.62;;;;;;;4.79;100.00;100565.44;1621856;86;22122;-81
2022/02/23 01:10:25;;;;;;;47.05;32.03;;;;;;;4.74;100.00;100570.84;1603593;86;21108;-82
2022/02/23 01:12:52;;;;;;;44.13;31.48;;;;;;;4.70;100.00;100562.05;1599189;87;21033;-79
2022/02/23 01:15:21;;;;;;;49.83;31.30;;;;;;;4.68;100.00;100559.55;1606367;88;21086;-79
2022/02/23 01:17:49;;;;;;;40.00;27.98;;;;;;;4.68;100.00;100566.00;1625749;87;21136;-81
2022/02/23 01:20:16;;;;;;;50.52;33.75;;;;;;;4.67;100.00;100571.22;1581000;88;21183;-82
2022/02/23 01:22:43;;;;;;;48.17;32.93;;;;;;;4.66;100.00;100571.69;1634246;86;21114;-79
2022/02/23 01:25:11;;;;;;;46.23;32.50;;;;;;;4.65;100.00;100572.59;1623578;87;21106;-79
2022/02/23 01:27:38;;;;;;;52.30;32.90;;;;;;;4.65;100.00;100567.44;1611259;87;21049;-80
2022/02/23 01:30:07;;;;;;;49.83;32.00;;;;;;;4.67;100.00;100556.59;1616004;87;21586;-80
2022/02/23 01:32:35;;;;;;;45.98;31.05;;;;;;;4.68;100.00;100554.39;1604770;87;21183;-79
2022/02/23 01:35:06;;;;;;;50.78;31.97;;;;;;;4.69;100.00;100559.08;1597808;86;21521;-83
2022/02/23 01:37:34;;;;;;;47.17;31.17;;;;;;;4.70;100.00;100570.61;1623309;88;21072;-80
2022/02/23 01:40:02;;;;;;;43.78;29.52;;;;;;;4.68;100.00;100584.06;1636125;86;21021;-80
2022/02/23 01:42:30;;;;;;;44.53;31.52;;;;;;;4.61;100.00;100590.88;1609310;87;21095;-79
2022/02/23 01:44:57;;;;;;;43.23;29.80;;;;;;;4.56;100.00;100600.98;1642753;87;21767;-80
2022/02/23 01:47:25;;;;;;;45.92;31.70;;;;;;;4.53;100.00;100595.12;1610501;86;21146;-81
2022/02/23 01:49:56;;;;;;;46.65;32.10;;;;;;;4.53;100.00;100598.55;1625822;86;21138;-84
2022/02/23 01:52:26;;;;;;;46.65;30.60;;;;;;;4.52;100.00;100590.91;1629218;86;21562;-82
2022/02/23 01:54:55;;;;;;;45.65;29.55;;;;;;;4.48;100.00;100587.64;1626133;87;21142;-81
2022/02/23 01:57:22;;;;;;;40.50;29.63;;;;;;;4.46;100.00;100598.92;1638449;85;21168;-80
2022/02/23 01:59:51;;;;;;;42.08;29.52;;;;;;;4.40;100.00;100599.61;1580389;88;20975;-83
2022/02/23 02:02:20;;;;;;;46.75;31.17;;;;;;;4.39;100.00;100599.70;1629976;87;21144;-80
2022/02/23 02:04:48;;;;;;;46.08;30.45;;;;;;;4.41;100.00;100603.02;1628943;86;21170;-82
2022/02/23 02:07:15;;;;;;;43.00;30.15;;;;;;;4.44;100.00;100598.19;1629846;86;21036;-84
2022/02/23 02:09:42;;;;;;;47.62;32.90;;;;;;;4.46;100.00;100603.64;1623636;87;21592;-83
2022/02/23 02:12:10;;;;;;;45.20;31.70;;;;;;;4.49;100.00;100611.67;1610881;87;21100;-84
2022/02/23 02:14:37;;;;;;;45.10;31.57;;;;;;;4.49;100.00;100609.09;1631860;87;21093;-82
2022/02/23 02:17:04;;;;;;;42.25;28.40;;;;;;;4.51;100.00;100607.28;1602977;87;21654;-82
2022/02/23 02:19:32;;;;;;;47.00;30.65;;;;;;;4.49;100.00;100608.62;1636432;86;21052;-80
2022/02/23 02:22:03;;;;;;;41.35;29.30;;;;;;;4.48;100.00;100613.87;1628621;86;22162;-80
2022/02/23 02:24:33;;;;;;;;;;;;;;;4.46;100.00;100614.39;1623108;87;21100;-80
2022/02/23 02:27:03;;;;;;;43.08;28.75;;;;;;;4.45;100.00;100615.33;1624387;86;20198;-85
2022/02/23 02:29:31;;;;;;;38.08;26.85;;;;;;;4.41;100.00;100612.89;1623098;86;21096;-80
2022/02/23 02:31:58;;;;;;;44.90;29.52;;;;;;;4.40;100.00;100619.42;1627077;86;21073;-80
2022/02/23 02:34:25;;;;;;;41.08;28.73;;;;;;;4.39;100.00;100621.15;1629472;87;21801;-79
2022/02/23 02:36:52;;;;;;;41.60;29.12;;;;;;;4.40;100.00;100624.58;1628376;86;21017;-80
2022/02/23 02:39:25;;;;;;;40.70;27.75;;;;;;;4.37;100.00;100627.30;1635477;86;21148;-80
2022/02/23 02:41:53;;;;;;;41.63;29.90;;;;;;;4.34;100.00;100628.72;1625251;86;21704;-79
2022/02/23 02:44:20;;;;;;;41.13;29.25;;;;;;;4.25;100.00;100626.97;1634826;86;21472;-79
2022/02/23 02:46:47;;;;;;;41.35;29.70;;;;;;;4.16;100.00;100632.59;1625842;87;21965;-83
2022/02/23 02:49:15;;;;;;;46.60;29.95;;;;;;;4.02;100.00;100624.23;1630413;86;21080;-80
2022/02/23 02:51:42;;;;;;;42.25;30.20;;;;;;;3.91;100.00;100629.89;1616254;86;21117;-83
2022/02/23 02:54:09;;;;;;;46.55;31.73;;;;;;;3.78;100.00;100629.63;1601716;87;21198;-83
2022/02/23 02:56:38;;;;;;;47.55;31.75;;;;;;;3.66;100.00;100627.60;1627223;87;21060;-84
2022/02/23 02:59:06;;;;;;;41.13;29.27;;;;;;;3.56;100.00;100628.95;1627560;85;21561;-81
2022/02/23 03:01:34;;;;;;;42.15;29.27;;;;;;;3.47;100.00;100632.33;1640853;86;21113;-81
2022/02/23 03:04:03;;;;;;;43.25;29.18;;;;;;;3.34;100.00;100636.80;1641324;86;21030;-80
2022/02/23 03:06:31;;;;;;;48.33;32.17;;;;;;;3.22;100.00;100636.89;1629406;86;21534;-80
2022/02/23 03:09:01;;;;;;;38.00;27.85;;;;;;;3.14;100.00;100635.92;1633748;85;21022;-80
2022/02/23 03:11:27;;;;;;;42.93;29.23;;;;;;;3.07;100.00;100634.52;1592082;87;21178;-83
2022/02/23 03:13:55;;;;;;;43.95;30.08;;;;;;;3.00;100.00;100644.27;1584402;89;21162;-83
2022/02/23 03:16:22;;;;;;;42.33;29.27;;;;;;;2.93;100.00;100642.83;1637207;86;21077;-82
2022/02/23 03:18:49;;;;;;;41.53;29.40;;;;;;;2.80;100.00;100645.94;1625578;87;21235;-82
2022/02/23 03:21:16;;;;;;;46.13;29.25;;;;;;;2.80;100.00;100645.94;1601826;87;21033;-82
2022/02/23 03:23:43;;;;;;;46.10;29.18;;;;;;;2.71;100.00;100649.34;1632470;86;21814;-81
2022/02/23 03:26:12;;;;;;;48.13;29.90;;;;;;;2.65;100.00;100646.58;1631459;86;21056;-81
2022/02/23 03:28:41;;;;;;;47.53;29.90;;;;;;;2.61;100.00;100648.88;1605186;86;21045;-80
2022/02/23 03:31:09;;;;;;;47.00;30.17;;;;;;;2.57;100.00;100646.05;1626882;86;21073;-81
2022/02/23 03:33:46;;;;;;;42.23;27.82;;;;;;;2.52;100.00;100651.38;1622246;86;21189;-81
2022/02/23 03:36:07;;;;;;;38.65;27.10;;;;;;;2.47;100.00;100651.57;1625206;85;21190;-83
2022/02/23 03:38:34;;;;;;;39.35;27.17;;;;;;;2.46;100.00;100657.61;1639545;85;21630;-82
2022/02/23 03:41:01;;;;;;;38.78;25.50;;;;;;;2.44;100.00;100665.84;1636447;86;21221;-83
2022/02/23 03:43:28;;;;;;;37.67;24.52;;;;;;;2.46;100.00;100666.59;1600990;86;21052;-81
2022/02/23 03:45:55;;;;;;;39.35;26.12;;;;;;;2.50;100.00;100669.88;1609012;87;22245;-81
2022/02/23 03:48:23;;;;;;;38.48;26.10;;;;;;;2.51;100.00;100665.98;1600188;87;21229;-81
2022/02/23 03:50:49;;;;;;;36.25;24.65;;;;;;;2.50;100.00;100669.45;1619675;86;21095;-81
2022/02/23 03:53:16;;;;;;;38.58;25.02;;;;;;;2.43;100.00;100667.17;1606567;86;21097;-81
2022/02/23 03:55:43;;;;;;;35.92;24.35;;;;;;;2.37;100.00;100674.67;1656722;85;21072;-79
2022/02/23 03:58:12;;;;;;;37.10;25.10;;;;;;;2.33;100.00;100679.10;1682767;83;21117;-84
2022/02/23 04:00:39;;;;;;;37.33;25.02;;;;;;;2.25;100.00;100682.42;1686610;83;21157;-84
2022/02/23 04:03:06;;;;;;;38.30;25.23;;;;;;;2.04;100.00;100680.27;1696118;82;21679;-86
2022/02/23 04:05:33;;;;;;;37.35;24.43;;;;;;;1.96;100.00;100678.44;1688658;83;21056;-84
2022/02/23 04:08:01;;;;;;;34.27;23.32;;;;;;;1.96;100.00;100678.44;1683566;84;21105;-86
2022/02/23 04:10:28;;;;;;;36.15;24.12;;;;;;;1.91;100.00;100686.31;1680827;84;21085;-81
2022/02/23 04:12:55;;;;;;;39.78;25.25;;;;;;;1.86;100.00;100692.91;1682865;84;21956;-80
2022/02/23 04:15:23;;;;;;;39.50;25.60;;;;;;;1.81;100.00;100692.68;1690690;84;20998;-80
2022/02/23 04:17:50;;;;;;;38.83;25.68;;;;;;;1.71;100.00;100697.33;1677541;83;21603;-81
2022/02/23 04:20:17;;;;;;;35.98;24.72;;;;;;;1.58;100.00;100694.37;1609390;85;21080;-81
2022/02/23 04:22:45;;;;;;;34.83;23.73;;;;;;;1.46;100.00;100705.91;1628320;86;21925;-80
2022/02/23 04:25:12;;;;;;;34.40;23.92;;;;;;;1.36;100.00;100705.37;1603990;87;21173;-79
2022/02/23 04:27:40;;;;;;;37.53;24.02;;;;;;;1.28;100.00;100712.54;1625343;86;21105;-81
2022/02/23 04:30:08;;;;;;;35.58;24.52;;;;;;;1.22;100.00;100717.86;1593055;88;21586;-80
2022/02/23 04:32:36;;;;;;;41.40;23.92;;;;;;;1.16;100.00;100721.92;1629701;87;21078;-79
2022/02/23 04:35:04;;;;;;;39.67;24.20;;;;;;;1.07;100.00;100722.63;1624505;86;21084;-81
2022/02/23 04:37:31;;;;;;;35.13;23.27;;;;;;;1.03;100.00;100733.89;1635891;85;21150;-83
2022/02/23 04:40:00;;;;;;;50.73;25.65;;;;;;;1.03;100.00;100735.60;1608137;87;21184;-85
2022/02/23 04:42:27;;;;;;;48.50;25.23;;;;;;;1.25;100.00;100746.81;1681625;83;21074;-84
2022/02/23 04:45:00;;;;;;;49.00;27.22;;;;;;;2.46;100.00;100741.14;1691895;83;21087;-87
2022/02/23 04:47:24;;;;;;;43.42;26.82;;;;;;;3.54;100.00;100750.48;1698975;84;21030;-83
2022/02/23 04:49:51;;;;;;;52.08;28.57;;;;;;;4.17;100.00;100757.13;1697998;83;21825;-85
2022/02/23 04:52:18;;;;;;;61.35;30.77;;;;;;;4.32;100.00;100760.75;1698991;83;21041;-84
2022/02/23 04:54:45;;;;;;;62.13;31.17;;;;;;;4.47;100.00;100763.05;1692547;83;21033;-85
2022/02/23 04:57:12;;;;;;;44.30;28.32;;;;;;;4.47;100.00;100765.20;1681559;83;21026;-86
2022/02/23 04:59:39;;;;;;;58.75;27.70;;;;;;;4.41;100.00;100761.16;1649275;85;21013;-85
2022/02/23 05:02:09;;;;;;;55.88;27.98;;;;;;;4.34;100.00;100764.92;1618948;86;21175;-83
2022/02/23 05:04:34;;;;;;;84.90;28.87;;;;;;;4.35;100.00;100770.91;1634409;85;21073;-85
2022/02/23 05:07:02;;;;;;;53.38;26.37;;;;;;;4.32;100.00;100771.06;1603507;87;21641;-82
2022/02/23 05:09:29;;;;;;;48.85;26.15;;;;;;;4.32;100.00;100772.36;1608121;87;21150;-81
2022/02/23 05:11:56;;;;;;;59.15;26.20;;;;;;;4.17;100.00;100775.17;1596869;87;21555;-81
2022/02/23 05:14:23;;;;;;;61.95;25.37;;;;;;;4.06;100.00;100771.80;1596882;85;21186;-80
2022/02/23 05:16:50;;;;;;;43.10;24.95;;;;;;;4.07;100.00;100776.88;1633286;85;21078;-82
2022/02/23 05:19:17;;;;;;;42.85;26.00;;;;;;;4.07;100.00;100776.06;1626814;85;21136;-84
2022/02/23 05:21:44;;;;;;;43.00;23.35;;;;;;;3.84;100.00;100779.66;1628539;86;21156;-82
2022/02/23 05:24:13;;;;;;;43.95;24.77;;;;;;;3.61;100.00;100785.36;1652644;84;21039;-82
2022/02/23 05:26:40;;;;;;;38.88;23.38;;;;;;;3.52;100.00;100787.89;1634023;86;21900;-81
2022/02/23 05:29:07;;;;;;;32.83;22.98;;;;;;;3.38;100.00;100791.48;1627498;86;21164;-85
2022/02/23 05:31:34;;;;;;;53.52;23.98;;;;;;;3.22;100.00;100799.02;1585645;87;21282;-82
2022/02/23 05:34:01;;;;;;;39.67;24.27;;;;;;;3.09;100.00;100800.80;1657706;84;21103;-83
2022/02/23 05:36:28;;;;;;;35.48;23.77;;;;;;;3.16;100.00;100816.37;1657031;83;21085;-82
2022/02/23 05:38:55;;;;;;;32.45;23.40;;;;;;;3.11;100.00;100818.77;1634569;86;21815;-82
2022/02/23 05:41:22;;;;;;;39.33;23.90;;;;;;;2.99;100.00;100829.11;1601624;87;21138;-85
2022/02/23 05:43:49;;;;;;;40.73;23.42;;;;;;;2.85;100.00;100825.79;1661245;84;21064;-82
2022/02/23 05:46:18;;;;;;;34.30;23.00;;;;;;;2.78;100.00;100836.75;1666728;84;21538;-82
2022/02/23 05:48:46;;;;;;;36.08;23.25;;;;;;;2.80;100.00;100834.97;1618416;87;21593;-81
2022/02/23 05:51:36;;;;;;;34.25;23.12;;;;;;;2.67;100.00;100840.20;1635377;87;21140;-82
2022/02/23 05:54:06;;;;;;;32.65;22.58;;;;;;;2.41;100.00;100840.74;1635163;86;21040;-85
2022/02/23 05:56:34;;;;;;;42.37;25.47;;;;;;;2.26;100.00;100851.59;1633218;86;21746;-82
2022/02/23 05:59:02;;;;;;;52.55;24.43;;;;;;;2.23;100.00;100852.55;1658983;84;21086;-82
2022/02/23 06:01:30;;;;;;;37.23;23.32;;;;;;;2.30;100.00;100861.70;1655354;83;21546;-81
2022/02/23 06:03:57;;;;;;;37.13;24.72;;;;;;;2.63;100.00;100869.48;1663936;83;21124;-83
2022/02/23 06:06:25;;;;;;;47.48;24.55;;;;;;;2.82;100.00;100869.62;1657667;84;21152;-82
2022/02/23 06:08:55;;;;;;;34.50;22.50;;;;;;;3.01;100.00;100874.88;1665163;83;21100;-82
2022/02/23 06:11:23;;;;;;;37.40;24.63;;;;;;;3.09;100.00;100875.42;1657841;85;21639;-84
2022/02/23 06:13:53;;;;;;;43.65;23.83;;;;;;;3.28;100.00;100876.84;1660539;83;21074;-81
2022/02/23 06:16:24;;;;;;;30.70;22.48;;;;;;;3.53;100.00;100877.55;1654763;84;21799;-82
2022/02/23 06:18:54;;;;;;;32.03;22.35;;;;;;;3.77;100.00;100890.70;1632866;84;21050;-81
2022/02/23 06:21:21;;;;;;;31.23;20.48;;;;;;;3.89;100.00;100892.34;1643890;84;21063;-84
2022/02/23 06:23:48;;;;;;;39.70;20.25;;;;;;;3.85;100.00;100892.93;1621754;86;21119;-84
2022/02/23 06:26:15;;;;;;;28.15;18.25;;;;;;;3.63;100.00;100893.02;1608839;85;21090;-85
2022/02/23 06:28:42;;;;;;;25.52;18.00;;;;;;;3.42;100.00;100898.13;1641971;84;21172;-84
2022/02/23 06:31:10;;;;;;;25.40;16.93;;;;;;;3.43;100.00;100889.52;1639093;84;21711;-84
2022/02/23 06:33:40;;;;;;;24.80;17.82;;;;;;;3.41;100.00;100898.20;1619356;85;21125;-82
2022/02/23 06:36:07;;;;;;;23.70;16.85;;;;;;;3.31;100.00;100904.19;1646383;85;21198;-81
2022/02/23 06:38:38;;;;;;;22.82;16.40;;;;;;;3.19;100.00;100901.65;1642819;85;21223;-81
2022/02/23 06:41:12;;;;;;;23.20;16.48;;;;;;;3.24;100.00;100902.30;1658105;82;21179;-82
2022/02/23 06:43:45;;;;;;;25.17;16.30;;;;;;;3.24;100.00;100904.05;1618058;86;22150;-82
2022/02/23 06:46:13;;;;;;;21.33;15.45;;;;;;;3.30;100.00;100907.66;1638839;84;21103;-86
2022/02/23 06:48:42;;;;;;;20.72;15.65;;;;;;;3.36;100.00;100909.97;1630752;85;21077;-83
2022/02/23 06:51:15;;;;;;;22.17;16.20;;;;;;;3.34;100.00;100911.77;1618544;85;21113;-82
2022/02/23 06:53:38;;;;;;;22.05;15.58;;;;;;;3.35;100.00;100910.05;1626685;86;21236;-84
2022/02/23 06:56:05;;;;;;;22.20;15.28;;;;;;;3.41;100.00;100908.04;1618336;86;21518;-83
2022/02/23 06:58:32;;;;;;;21.27;14.93;;;;;;;3.43;100.00;100916.55;1660457;83;21457;-82
2022/02/23 07:01:00;;;;;;;22.42;16.23;;;;;;;3.42;100.00;100917.44;1622411;86;21595;-83
2022/02/23 07:03:29;;;;;;;21.27;15.50;;;;;;;3.46;100.00;100921.59;1638369;85;21307;-81
2022/02/23 07:05:56;;;;;;;20.75;15.50;;;;;;;3.54;100.00;100927.69;1633508;85;22123;-81
2022/02/23 07:08:23;;;;;;;20.43;15.40;;;;;;;3.63;100.00;100927.32;1654076;84;21073;-83
2022/02/23 07:10:50;;;;;;;19.67;14.43;;;;;;;3.75;100.00;100922.58;1634087;85;21157;-82
2022/02/23 07:13:17;;;;;;;18.27;14.75;;;;;;;3.87;100.00;100928.49;1635996;85;21647;-81
2022/02/23 07:15:44;;;;;;;17.45;13.22;;;;;;;3.99;100.00;100931.00;1646591;85;21115;-84
2022/02/23 07:18:11;;;;;;;18.27;12.25;;;;;;;4.04;100.00;100935.96;1629783;85;21477;-83
2022/02/23 07:20:39;;;;;;;20.37;12.18;;;;;;;4.04;100.00;100937.25;1622712;85;21917;-81
2022/02/23 07:23:07;;;;;;;17.45;12.03;;;;;;;4.02;100.00;100933.89;1637255;85;21883;-82
2022/02/23 07:25:38;;;;;;;17.82;12.50;;;;;;;4.02;100.00;100936.04;1618006;85;21101;-83
2022/02/23 07:28:05;;;;;;;;;;;;;;;4.07;100.00;100937.95;1617338;85;21100;-81
2022/02/23 07:30:32;;;;;;;17.95;12.15;;;;;;;4.07;100.00;100937.95;1630468;85;22253;-79
2022/02/23 07:32:59;;;;;;;16.20;12.23;;;;;;;4.11;100.00;100942.52;1611337;85;21142;-80
2022/02/23 07:35:27;;;;;;;18.65;12.23;;;;;;;4.16;100.00;100941.90;1651544;84;21075;-80
2022/02/23 07:37:55;;;;;;;15.78;12.73;;;;;;;4.24;100.00;100950.14;1629043;85;21200;-80
2022/02/23 07:40:23;;;;;;;14.13;11.15;;;;;;;4.33;100.00;100942.45;1638364;84;21593;-80
2022/02/23 07:42:50;;;;;;;14.10;10.08;;;;;;;4.40;100.00;100945.13;1661814;85;21800;-80
2022/02/23 07:45:19;;;;;;;14.38;8.98;;;;;;;4.47;100.00;100946.14;1652183;85;21113;-80
2022/02/23 07:47:47;;;;;;;14.43;9.65;;;;;;;4.53;100.00;100952.31;1646426;84;21602;-80
2022/02/23 07:50:16;;;;;;;12.70;8.90;;;;;;;4.61;100.00;100946.36;1623952;85;21113;-80
2022/02/23 07:52:43;;;;;;;12.70;9.03;;;;;;;4.64;100.00;100951.40;1626816;85;21192;-82
2022/02/23 07:55:10;;;;;;;12.95;7.58;;;;;;;4.65;100.00;100954.36;1623087;85;21108;-79
2022/02/23 07:57:37;;;;;;;14.45;8.28;;;;;;;4.60;100.00;100956.33;1631470;86;21049;-80
2022/02/23 08:00:09;;;;;;;12.43;8.33;;;;;;;4.54;100.00;100954.84;1599425;87;21219;-78
2022/02/23 08:02:37;;;;;;;11.90;8.25;;;;;;;4.52;100.00;100958.41;1651665;83;21055;-79
2022/02/23 08:05:06;;;;;;;11.18;7.62;;;;;;;4.56;100.00;100949.17;1647529;84;21027;-78
2022/02/23 08:07:34;;;;;;;13.80;6.65;;;;;;;4.67;100.00;100952.56;1662727;83;21638;-79
2022/02/23 08:10:03;;;;;;;12.28;7.42;;;;;;;4.74;100.00;100956.53;1630671;86;21092;-79
2022/02/23 08:12:32;;;;;;;10.05;7.50;;;;;;;4.82;100.00;100955.34;1604440;87;21123;-79
2022/02/23 08:19:30;;;;;;;9.88;6.80;;;;;;;4.90;100.00;100948.09;1584613;88;21054;-78
2022/02/23 08:20:13;;;;;;;9.08;5.70;;;;;;;5.08;100.00;100950.73;1612989;86;21387;-78
2022/02/23 08:22:42;;;;;;;7.17;5.35;;;;;;;5.18;100.00;100949.37;1665411;84;21112;-76
2022/02/23 08:25:09;;;;;;;8.23;6.35;;;;;;;5.28;100.00;100948.03;1653043;85;21524;-78
2022/02/23 08:27:36;;;;;;;8.88;5.50;;;;;;;5.39;100.00;100951.86;1662893;85;21097;-78
2022/02/23 08:30:08;;;;;;;7.95;5.50;;;;;;;5.48;100.00;100947.55;1652604;85;21096;-79
2022/02/23 08:32:34;;;;;;;8.90;5.50;;;;;;;5.57;100.00;100941.09;1653236;85;21997;-79
2022/02/23 08:35:01;;;;;;;6.58;5.12;;;;;;;5.65;100.00;100944.13;1607223;87;21058;-79
2022/02/23 08:37:28;;;;;;;9.63;5.40;;;;;;;5.71;100.00;100944.29;1628433;86;21068;-77
2022/02/23 08:39:56;;;;;;;7.92;5.75;;;;;;;5.73;100.00;100954.10;1624593;87;21438;-79
2022/02/23 08:42:23;;;;;;;9.23;6.35;;;;;;;5.79;100.00;100952.03;1606850;87;21129;-77
2022/02/23 08:44:50;;;;;;;10.63;5.95;;;;;;;5.86;100.00;100944.81;1604368;88;21166;-77
2022/02/23 08:47:18;;;;;;;7.42;5.62;;;;;;;5.92;100.00;100947.09;1610594;88;21097;-79
2022/02/23 08:49:46;;;;;;;7.10;5.67;;;;;;;5.97;100.00;100941.69;1605099;88;21116;-80
2022/02/23 08:52:14;;;;;;;8.70;5.65;;;;;;;6.02;100.00;100937.14;1602833;87;21077;-80
2022/02/23 08:54:41;;;;;;;8.80;5.30;;;;;;;6.10;100.00;100943.23;1610788;87;21651;-78
2022/02/23 08:57:09;;;;;;;6.15;5.08;;;;;;;6.16;100.00;100942.91;1614658;87;21806;-80
2022/02/23 08:59:36;;;;;;;6.25;5.22;;;;;;;6.24;100.00;100951.11;1611083;86;21105;-78
2022/02/23 09:02:04;;;;;;;7.12;4.65;;;;;;;6.28;100.00;100947.47;1629763;86;21511;-79
2022/02/23 09:04:32;;;;;;;5.20;4.17;;;;;;;6.33;100.00;100948.96;1618479;84;21038;-78
2022/02/23 09:06:59;;;;;;;7.28;4.55;;;;;;;6.38;100.00;100946.96;1641683;85;21152;-78
2022/02/23 09:09:26;;;;;;;5.92;4.58;;;;;;;6.44;100.00;100944.90;1627296;86;21155;-78
2022/02/23 09:11:53;;;;;;;7.30;4.97;;;;;;;6.53;100.00;100944.86;1622219;86;21046;-78
2022/02/23 09:14:20;;;;;;;6.85;4.35;;;;;;;6.60;100.00;100943.64;1633066;85;21037;-78
2022/02/23 09:16:49;;;;;;;5.83;3.90;;;;;;;6.69;100.00;100942.78;1627714;86;21123;-82
2022/02/23 09:19:17;;;;;;;6.40;4.10;;;;;;;6.77;100.00;100947.91;1595544;87;21088;-78
2022/02/23 09:21:44;;;;;;;4.55;3.90;;;;;;;6.85;100.00;100934.53;1618650;86;22113;-78
2022/02/23 09:24:11;;;;;;;6.25;4.50;;;;;;;6.98;100.00;100946.83;1663640;84;21128;-78
2022/02/23 09:26:38;;;;;;;6.08;4.87;;;;;;;7.03;100.00;100936.59;1634817;86;21242;-78
2022/02/23 09:29:06;;;;;;;6.50;4.60;;;;;;;7.08;100.00;100935.05;1644405;85;21148;-77
2022/02/23 09:31:36;;;;;;;4.67;3.77;;;;;;;7.11;100.00;100934.86;1652262;85;21100;-80
2022/02/23 09:34:03;;;;;;;6.87;4.37;;;;;;;7.15;100.00;100938.97;1641202;86;21168;-78
2022/02/23 09:36:30;;;;;;;5.50;4.33;;;;;;;7.21;100.00;100937.80;1652805;84;21068;-79
2022/02/23 09:38:57;;;;;;;4.55;4.03;;;;;;;7.26;100.00;100944.37;1607553;85;21092;-78
2022/02/23 09:41:25;;;;;;;4.22;3.83;;;;;;;7.31;100.00;100936.81;1629526;85;21125;-78
2022/02/23 09:43:54;;;;;;;5.80;4.47;;;;;;;7.38;100.00;100940.25;1623112;85;21641;-79
2022/02/23 09:46:23;;;;;;;5.80;4.42;;;;;;;7.47;100.00;100946.69;1619704;86;21281;-78
2022/02/23 09:48:53;;;;;;;6.42;4.55;;;;;;;7.50;100.00;100949.09;1639360;85;21218;-77
2022/02/23 09:51:21;;;;;;;5.67;4.30;;;;;;;7.55;100.00;100943.20;1625568;85;21177;-79
2022/02/23 09:53:49;;;;;;;4.67;4.00;;;;;;;7.56;100.00;100949.20;1652146;85;21057;-79
2022/02/23 09:56:18;;;;;;;6.40;4.67;;;;;;;7.61;100.00;100935.98;1657117;86;21104;-79
2022/02/23 09:58:47;;;;;;;5.05;4.47;;;;;;;7.65;100.00;100938.80;1657188;84;21146;-78
2022/02/23 10:01:15;;;;;;;7.53;5.30;;;;;;;7.68;100.00;100934.27;1655930;86;21612;-78
2022/02/23 10:03:47;;;;;;;5.78;4.10;;;;;;;7.71;100.00;100935.36;1657882;85;21200;-77
2022/02/23 10:06:33;;;;;;;6.85;4.62;;;;;;;7.75;100.00;100941.20;1617944;84;21095;-78
2022/02/23 10:09:08;;;;;;;4.95;4.20;;;;;;;7.78;99.42;100929.38;1666529;84;21222;-79
2022/02/23 10:11:37;;;;;;;5.78;4.33;;;;;;;7.83;100.00;100935.11;1628962;85;21049;-77
2022/02/23 10:14:08;;;;;;;4.87;3.83;;;;;;;7.86;92.96;100936.69;1665333;84;21099;-78
2022/02/23 10:16:39;;;;;;;5.30;3.93;;;;;;;7.89;100.00;100933.92;1649086;84;21218;-78
2022/02/23 10:19:21;;;;;;;4.80;4.30;;;;;;;7.97;99.39;100934.78;1609839;85;21150;-79
2022/02/23 10:21:52;;;;;;;6.30;4.80;;;;;;;8.05;100.00;100932.56;1654550;84;21084;-79
2022/02/23 10:24:34;;;;;;;4.95;4.45;;;;;;;8.11;100.00;100936.09;1677477;83;21834;-79
2022/02/23 10:27:08;;;;;;;5.22;4.20;;;;;;;8.15;94.47;100938.85;1655252;84;20998;-77
2022/02/23 10:29:50;;;;;;;5.92;4.55;;;;;;;8.19;93.29;100933.87;1587875;86;21090;-78
2022/02/23 10:32:19;;;;;;;5.78;4.78;;;;;;;8.18;99.42;100933.49;1620853;85;21073;-78
2022/02/23 10:34:48;;;;;;;5.08;4.55;;;;;;;8.18;98.93;100936.09;1637797;84;21049;-80
2022/02/23 10:37:19;;;;;;;5.33;4.15;;;;;;;8.19;91.38;100936.91;1655844;85;21327;-78
2022/02/23 10:40:00;;;;;;;5.37;4.25;;;;;;;8.20;99.47;100932.95;1601173;86;21077;-79
2022/02/23 10:42:30;;;;;;;5.08;4.35;;;;;;;8.24;100.00;100938.78;1664027;84;21373;-81
2022/02/23 10:45:00;;;;;;;4.90;4.05;;;;;;;8.28;94.94;100936.36;1647905;85;21161;-78
2022/02/23 10:47:37;;;;;;;4.72;4.03;;;;;;;8.31;98.04;100932.30;1641586;85;21168;-79
2022/02/23 10:50:12;;;;;;;7.08;4.60;;;;;;;8.33;85.45;100939.50;1633232;86;21163;-79
2022/02/23 10:52:55;;;;;;;5.35;4.28;;;;;;;8.30;84.30;100934.52;1604613;87;21511;-79
2022/02/23 10:55:31;;;;;;;5.47;4.30;;;;;;;8.24;90.09;100932.30;1647511;84;21016;-78
2022/02/23 10:58:06;;;;;;;5.25;4.30;;;;;;;8.25;100.00;100937.01;1621918;85;22070;-79
2022/02/23 11:00:40;;;;;;;5.53;4.37;;;;;;;8.26;93.10;100938.69;1637859;85;21634;-79
2022/02/23 11:03:06;;;;;;;6.35;4.25;;;;;;;8.25;100.00;100940.90;1633713;86;21169;-80
2022/02/23 11:05:34;;;;;;;6.00;4.12;;;;;;;8.25;89.63;100935.71;1659607;85;21144;-79
2022/02/23 11:08:04;;;;;;;4.42;4.03;;;;;;;8.26;93.75;100932.20;1636374;85;21072;-77
2022/02/23 11:10:32;;;;;;;5.70;4.20;;;;;;;8.28;87.08;100930.34;1655625;83;21069;-79
2022/02/23 11:13:00;;;;;;;4.80;4.28;;;;;;;8.27;83.08;100927.38;1623382;85;21160;-78
2022/02/23 11:15:30;;;;;;;4.22;3.72;;;;;;;8.26;84.20;100933.49;1620021;86;22305;-80
2022/02/23 11:17:58;;;;;;;4.00;3.52;;;;;;;8.27;91.06;100929.50;1627112;86;21601;-83
2022/02/23 11:20:29;;;;;;;4.92;4.42;;;;;;;8.32;88.83;100940.90;1661856;84;21054;-80
2022/02/23 11:23:00;;;;;;;4.80;4.12;;;;;;;8.36;91.65;100928.95;1657430;84;21148;-79